sensor_id;sensor_type;location;lat;lon;timestamp;temperature;humidity
2653;DHT22;1336;48.692;9.144;2022-10-31T06:00:46;13.50;97.20
2653;DHT22;1336;48.692;9.144;2022-10-31T06:01:38;13.50;97.20
2653;DHT22;1336;48.692;9.144;2022-10-31T06:02:29;13.50;97.20
2653;DHT22;1336;48.692;9.144;2022-10-31T06:03:24;13.50;97.20
2653;DHT22;1336;48.692;9.144;2022-10-31T06:04:15;13.50;97.20
2653;DHT22;1336;48.692;9.144;2022-10-31T06:05:07;13.50;97.20
2653;DHT22;1336;48.692;9.144;2022-10-31T06:05:58;13.50;97.20
2653;DHT22;1336;48.692;9.144;2022-10-31T06:06:50;13.50;97.20
2653;DHT22;1336;48.692;9.144;2022-10-31T06:07:40;13.50;97.20
2653;DHT22;1336;48.692;9.144;2022-10-31T06:08:32;13.50;97.20
2653;DHT22;1336;48.692;9.144;2022-10-31T06:09:23;13.60;97.20
2653;DHT22;1336;48.692;9.144;2022-10-31T06:10:15;13.60;97.20
2653;DHT22;1336;48.692;9.144;2022-10-31T06:11:06;13.60;97.20
2653;DHT22;1336;48.692;9.144;2022-10-31T06:11:58;13.60;97.20
2653;DHT22;1336;48.692;9.144;2022-10-31T06:12:49;13.50;97.20
2653;DHT22;1336;48.692;9.144;2022-10-31T06:13:40;13.60;97.20
2653;DHT22;1336;48.692;9.144;2022-10-31T06:14:31;13.60;97.20
2653;DHT22;1336;48.692;9.144;2022-10-31T06:15:23;13.60;97.20
2653;DHT22;1336;48.692;9.144;2022-10-31T06:16:15;13.60;97.20
2653;DHT22;1336;48.692;9.144;2022-10-31T06:17:07;13.50;97.20
2653;DHT22;1336;48.692;9.144;2022-10-31T06:17:59;13.60;97.20
2653;DHT22;1336;48.692;9.144;2022-10-31T06:18:51;13.60;97.20
2653;DHT22;1336;48.692;9.144;2022-10-31T06:19:41;13.50;97.20
2653;DHT22;1336;48.692;9.144;2022-10-31T06:20:33;13.50;97.20
2653;DHT22;1336;48.692;9.144;2022-10-31T06:21:24;13.60;97.20
2653;DHT22;1336;48.692;9.144;2022-10-31T06:22:16;13.60;97.20
2653;DHT22;1336;48.692;9.144;2022-10-31T06:23:06;13.60;97.20
2653;DHT22;1336;48.692;9.144;2022-10-31T06:23:57;13.60;97.20
2653;DHT22;1336;48.692;9.144;2022-10-31T06:24:49;13.60;97.20
2653;DHT22;1336;48.692;9.144;2022-10-31T06:25:40;13.50;97.20
2653;DHT22;1336;48.692;9.144;2022-10-31T06:26:31;13.50;97.20
2653;DHT22;1336;48.692;9.144;2022-10-31T06:27:22;13.60;97.20
2653;DHT22;1336;48.692;9.144;2022-10-31T06:28:14;13.60;97.20
2653;DHT22;1336;48.692;9.144;2022-10-31T06:29:05;13.50;97.20
2653;DHT22;1336;48.692;9.144;2022-10-31T06:29:56;13.50;97.20
2653;DHT22;1336;48.692;9.144;2022-10-31T06:30:47;13.60;97.20
2653;DHT22;1336;48.692;9.144;2022-10-31T06:31:40;13.50;97.20
2653;DHT22;1336;48.692;9.144;2022-10-31T06:32:31;13.50;97.20
2653;DHT22;1336;48.692;9.144;2022-10-31T06:33:23;13.50;97.20
2653;DHT22;1336;48.692;9.144;2022-10-31T06:34:13;13.60;97.20
2653;DHT22;1336;48.692;9.144;2022-10-31T06:35:06;13.60;97.20
2653;DHT22;1336;48.692;9.144;2022-10-31T06:35:57;13.50;97.20
2653;DHT22;1336;48.692;9.144;2022-10-31T06:36:49;13.60;97.20
2653;DHT22;1336;48.692;9.144;2022-10-31T06:37:39;13.60;97.20
2653;DHT22;1336;48.692;9.144;2022-10-31T06:38:31;13.60;97.20
2653;DHT22;1336;48.692;9.144;2022-10-31T06:39:22;13.60;97.20
2653;DHT22;1336;48.692;9.144;2022-10-31T06:40:14;13.60;97.20
2653;DHT22;1336;48.692;9.144;2022-10-31T06:41:05;13.60;97.20
2653;DHT22;1336;48.692;9.144;2022-10-31T06:41:57;13.60;97.20
2653;DHT22;1336;48.692;9.144;2022-10-31T06:42:56;13.60;97.20
2653;DHT22;1336;48.692;9.144;2022-10-31T06:43:47;13.60;97.20
2653;DHT22;1336;48.692;9.144;2022-10-31T06:44:38;13.70;97.20
2653;DHT22;1336;48.692;9.144;2022-10-31T06:45:30;13.70;97.20
2653;DHT22;1336;48.692;9.144;2022-10-31T06:46:20;13.70;97.20
2653;DHT22;1336;48.692;9.144;2022-10-31T06:47:13;13.70;97.20
2653;DHT22;1336;48.692;9.144;2022-10-31T06:48:05;13.70;97.20
2653;DHT22;1336;48.692;9.144;2022-10-31T06:48:58;13.70;97.20
2653;DHT22;1336;48.692;9.144;2022-10-31T06:49:49;13.80;97.20
2653;DHT22;1336;48.692;9.144;2022-10-31T06:50:41;13.80;97.20
2653;DHT22;1336;48.692;9.144;2022-10-31T06:51:32;13.80;97.20
2653;DHT22;1336;48.692;9.144;2022-10-31T06:52:23;13.80;97.20
2653;DHT22;1336;48.692;9.144;2022-10-31T06:53:14;13.80;97.20
2653;DHT22;1336;48.692;9.144;2022-10-31T06:54:06;13.80;97.20
2653;DHT22;1336;48.692;9.144;2022-10-31T06:54:57;13.80;97.20
2653;DHT22;1336;48.692;9.144;2022-10-31T06:55:48;13.80;97.20
2653;DHT22;1336;48.692;9.144;2022-10-31T06:56:39;13.80;97.20
2653;DHT22;1336;48.692;9.144;2022-10-31T06:57:31;13.80;97.20
2653;DHT22;1336;48.692;9.144;2022-10-31T06:58:22;13.80;97.20
2653;DHT22;1336;48.692;9.144;2022-10-31T06:59:14;13.80;97.20
2653;DHT22;1336;48.692;9.144;2022-10-31T07:00:06;13.80;97.20
2653;DHT22;1336;48.692;9.144;2022-10-31T07:00:59;13.80;97.20
2653;DHT22;1336;48.692;9.144;2022-10-31T07:01:50;13.80;97.20
2653;DHT22;1336;48.692;9.144;2022-10-31T07:02:43;13.80;97.20
2653;DHT22;1336;48.692;9.144;2022-10-31T07:03:34;13.80;97.20
2653;DHT22;1336;48.692;9.144;2022-10-31T07:04:26;13.80;97.20
2653;DHT22;1336;48.692;9.144;2022-10-31T07:05:16;13.80;97.20
2653;DHT22;1336;48.692;9.144;2022-10-31T07:06:08;13.80;97.20
2653;DHT22;1336;48.692;9.144;2022-10-31T07:06:59;13.80;97.20
2653;DHT22;1336;48.692;9.144;2022-10-31T07:07:52;13.80;97.20
2653;DHT22;1336;48.692;9.144;2022-10-31T07:08:43;13.80;97.20
2653;DHT22;1336;48.692;9.144;2022-10-31T07:09:35;13.80;97.20
2653;DHT22;1336;48.692;9.144;2022-10-31T07:10:27;13.80;97.20
2653;DHT22;1336;48.692;9.144;2022-10-31T07:11:19;13.80;97.20
2653;DHT22;1336;48.692;9.144;2022-10-31T07:12:10;13.80;97.20
2653;DHT22;1336;48.692;9.144;2022-10-31T07:13:03;13.80;97.20
2653;DHT22;1336;48.692;9.144;2022-10-31T07:13:54;13.80;97.20
2653;DHT22;1336;48.692;9.144;2022-10-31T07:14:46;13.80;97.20
2653;DHT22;1336;48.692;9.144;2022-10-31T07:15:38;13.80;97.20
2653;DHT22;1336;48.692;9.144;2022-10-31T07:16:30;13.80;97.20
2653;DHT22;1336;48.692;9.144;2022-10-31T07:17:23;13.80;97.20
2653;DHT22;1336;48.692;9.144;2022-10-31T07:18:16;13.80;97.20
2653;DHT22;1336;48.692;9.144;2022-10-31T07:19:07;13.80;97.20
2653;DHT22;1336;48.692;9.144;2022-10-31T07:19:58;13.90;97.20
2653;DHT22;1336;48.692;9.144;2022-10-31T07:20:49;13.90;97.20
2653;DHT22;1336;48.692;9.144;2022-10-31T07:21:41;13.90;97.20
2653;DHT22;1336;48.692;9.144;2022-10-31T07:22:35;13.90;97.20
2653;DHT22;1336;48.692;9.144;2022-10-31T07:23:27;14.00;97.20
2653;DHT22;1336;48.692;9.144;2022-10-31T07:24:18;14.00;97.20
2653;DHT22;1336;48.692;9.144;2022-10-31T07:25:10;14.00;97.20
2653;DHT22;1336;48.692;9.144;2022-10-31T07:26:01;14.00;97.20
2653;DHT22;1336;48.692;9.144;2022-10-31T07:26:52;14.00;97.20
2653;DHT22;1336;48.692;9.144;2022-10-31T07:27:43;14.00;97.20
2653;DHT22;1336;48.692;9.144;2022-10-31T07:28:35;14.00;97.20
2653;DHT22;1336;48.692;9.144;2022-10-31T07:29:25;14.00;97.20
2653;DHT22;1336;48.692;9.144;2022-10-31T07:30:17;14.00;97.20
2653;DHT22;1336;48.692;9.144;2022-10-31T07:31:09;14.10;97.20
2653;DHT22;1336;48.692;9.144;2022-10-31T07:32:00;14.10;97.20
2653;DHT22;1336;48.692;9.144;2022-10-31T07:32:53;14.10;97.20
2653;DHT22;1336;48.692;9.144;2022-10-31T07:33:47;14.10;97.20
2653;DHT22;1336;48.692;9.144;2022-10-31T07:34:37;14.20;97.20
2653;DHT22;1336;48.692;9.144;2022-10-31T07:35:30;14.20;97.20
2653;DHT22;1336;48.692;9.144;2022-10-31T07:36:21;14.20;97.20
2653;DHT22;1336;48.692;9.144;2022-10-31T07:37:12;14.20;97.20
2653;DHT22;1336;48.692;9.144;2022-10-31T07:38:08;14.30;97.20
2653;DHT22;1336;48.692;9.144;2022-10-31T07:38:59;14.30;97.20
2653;DHT22;1336;48.692;9.144;2022-10-31T07:39:52;14.30;97.20
2653;DHT22;1336;48.692;9.144;2022-10-31T07:40:43;14.40;97.20
2653;DHT22;1336;48.692;9.144;2022-10-31T07:41:35;14.40;97.20
2653;DHT22;1336;48.692;9.144;2022-10-31T07:42:25;14.40;97.20
2653;DHT22;1336;48.692;9.144;2022-10-31T07:43:17;14.40;97.20
2653;DHT22;1336;48.692;9.144;2022-10-31T07:44:08;14.50;97.20
2653;DHT22;1336;48.692;9.144;2022-10-31T07:45:00;14.50;97.20
2653;DHT22;1336;48.692;9.144;2022-10-31T07:45:51;14.50;97.20
2653;DHT22;1336;48.692;9.144;2022-10-31T07:46:43;14.50;97.20
2653;DHT22;1336;48.692;9.144;2022-10-31T07:47:38;14.60;97.20
2653;DHT22;1336;48.692;9.144;2022-10-31T07:48:29;14.60;97.20
2653;DHT22;1336;48.692;9.144;2022-10-31T07:49:22;14.60;97.20
2653;DHT22;1336;48.692;9.144;2022-10-31T07:50:17;14.60;97.20
2653;DHT22;1336;48.692;9.144;2022-10-31T07:51:07;14.70;97.20
2653;DHT22;1336;48.692;9.144;2022-10-31T07:51:59;14.70;97.20
2653;DHT22;1336;48.692;9.144;2022-10-31T07:52:58;14.70;97.20
2653;DHT22;1336;48.692;9.144;2022-10-31T07:53:50;14.80;97.20
2653;DHT22;1336;48.692;9.144;2022-10-31T07:54:41;14.80;97.20
2653;DHT22;1336;48.692;9.144;2022-10-31T07:55:33;14.90;97.20
2653;DHT22;1336;48.692;9.144;2022-10-31T07:56:24;14.90;97.20
2653;DHT22;1336;48.692;9.144;2022-10-31T07:57:15;14.90;97.20
2653;DHT22;1336;48.692;9.144;2022-10-31T07:58:07;15.00;97.20
2653;DHT22;1336;48.692;9.144;2022-10-31T07:58:59;15.00;97.20
2653;DHT22;1336;48.692;9.144;2022-10-31T07:59:50;15.00;97.20
2653;DHT22;1336;48.692;9.144;2022-10-31T08:00:43;15.10;97.20
2653;DHT22;1336;48.692;9.144;2022-10-31T08:01:34;15.10;97.20
2653;DHT22;1336;48.692;9.144;2022-10-31T08:02:26;15.10;97.20
2653;DHT22;1336;48.692;9.144;2022-10-31T08:03:18;15.10;97.20
2653;DHT22;1336;48.692;9.144;2022-10-31T08:04:10;15.10;97.20
2653;DHT22;1336;48.692;9.144;2022-10-31T08:05:03;15.10;97.20
2653;DHT22;1336;48.692;9.144;2022-10-31T08:05:56;15.20;97.20
2653;DHT22;1336;48.692;9.144;2022-10-31T08:06:47;15.20;97.20
2653;DHT22;1336;48.692;9.144;2022-10-31T08:07:39;15.20;97.20
2653;DHT22;1336;48.692;9.144;2022-10-31T08:08:30;15.30;97.20
2653;DHT22;1336;48.692;9.144;2022-10-31T08:09:22;15.30;97.20
2653;DHT22;1336;48.692;9.144;2022-10-31T08:10:13;15.30;97.20
2653;DHT22;1336;48.692;9.144;2022-10-31T08:11:05;15.40;97.20
2653;DHT22;1336;48.692;9.144;2022-10-31T08:11:55;15.40;97.20
2653;DHT22;1336;48.692;9.144;2022-10-31T08:12:52;15.40;97.20
2653;DHT22;1336;48.692;9.144;2022-10-31T08:13:46;15.50;97.20
2653;DHT22;1336;48.692;9.144;2022-10-31T08:14:37;15.50;97.20
2653;DHT22;1336;48.692;9.144;2022-10-31T08:15:28;15.50;97.20
2653;DHT22;1336;48.692;9.144;2022-10-31T08:16:20;15.60;97.20
2653;DHT22;1336;48.692;9.144;2022-10-31T08:17:11;15.60;97.20
2653;DHT22;1336;48.692;9.144;2022-10-31T08:18:03;15.60;97.20
2653;DHT22;1336;48.692;9.144;2022-10-31T08:18:54;15.70;97.20
2653;DHT22;1336;48.692;9.144;2022-10-31T08:19:46;15.70;97.20
2653;DHT22;1336;48.692;9.144;2022-10-31T08:20:38;15.80;97.20
2653;DHT22;1336;48.692;9.144;2022-10-31T08:21:29;15.80;97.20
2653;DHT22;1336;48.692;9.144;2022-10-31T08:22:20;15.90;97.20
2653;DHT22;1336;48.692;9.144;2022-10-31T08:23:12;15.90;97.20
2653;DHT22;1336;48.692;9.144;2022-10-31T08:24:04;16.00;97.20
2653;DHT22;1336;48.692;9.144;2022-10-31T08:24:56;16.00;97.20
2653;DHT22;1336;48.692;9.144;2022-10-31T08:25:47;16.00;97.20
2653;DHT22;1336;48.692;9.144;2022-10-31T08:26:38;16.10;97.20
2653;DHT22;1336;48.692;9.144;2022-10-31T08:27:29;16.10;97.20
2653;DHT22;1336;48.692;9.144;2022-10-31T08:28:21;16.20;97.20
2653;DHT22;1336;48.692;9.144;2022-10-31T08:29:13;16.20;97.20
2653;DHT22;1336;48.692;9.144;2022-10-31T08:30:06;16.30;97.20
2653;DHT22;1336;48.692;9.144;2022-10-31T08:30:58;16.30;97.20
2653;DHT22;1336;48.692;9.144;2022-10-31T08:31:49;16.30;97.20
2653;DHT22;1336;48.692;9.144;2022-10-31T08:32:40;16.30;97.20
2653;DHT22;1336;48.692;9.144;2022-10-31T08:33:31;16.40;97.20
2653;DHT22;1336;48.692;9.144;2022-10-31T08:34:23;16.40;97.20
2653;DHT22;1336;48.692;9.144;2022-10-31T08:35:14;16.40;97.20
2653;DHT22;1336;48.692;9.144;2022-10-31T08:36:07;16.50;97.20
2653;DHT22;1336;48.692;9.144;2022-10-31T08:36:59;16.50;97.20
2653;DHT22;1336;48.692;9.144;2022-10-31T08:37:52;16.60;97.20
2653;DHT22;1336;48.692;9.144;2022-10-31T08:38:44;16.60;97.20
2653;DHT22;1336;48.692;9.144;2022-10-31T08:39:34;16.60;97.20
2653;DHT22;1336;48.692;9.144;2022-10-31T08:40:27;16.70;97.20
2653;DHT22;1336;48.692;9.144;2022-10-31T08:41:19;16.70;97.20
2653;DHT22;1336;48.692;9.144;2022-10-31T08:42:10;16.80;97.20
2653;DHT22;1336;48.692;9.144;2022-10-31T08:43:02;16.80;97.20
2653;DHT22;1336;48.692;9.144;2022-10-31T08:43:54;16.90;97.20
2653;DHT22;1336;48.692;9.144;2022-10-31T08:44:45;16.90;97.20
2653;DHT22;1336;48.692;9.144;2022-10-31T08:45:37;16.90;97.20
2653;DHT22;1336;48.692;9.144;2022-10-31T08:46:28;16.90;97.20
2653;DHT22;1336;48.692;9.144;2022-10-31T08:47:19;16.90;97.20
2653;DHT22;1336;48.692;9.144;2022-10-31T08:48:12;16.90;97.20
2653;DHT22;1336;48.692;9.144;2022-10-31T08:49:03;16.90;97.20
2653;DHT22;1336;48.692;9.144;2022-10-31T08:49:55;17.00;97.20
2653;DHT22;1336;48.692;9.144;2022-10-31T08:50:46;17.00;97.20
2653;DHT22;1336;48.692;9.144;2022-10-31T08:51:39;17.00;97.20
2653;DHT22;1336;48.692;9.144;2022-10-31T08:52:30;17.00;97.20
2653;DHT22;1336;48.692;9.144;2022-10-31T08:53:22;17.10;97.20
2653;DHT22;1336;48.692;9.144;2022-10-31T08:54:13;17.10;97.20
2653;DHT22;1336;48.692;9.144;2022-10-31T08:55:05;17.10;97.20
2653;DHT22;1336;48.692;9.144;2022-10-31T08:55:56;17.10;97.20
2653;DHT22;1336;48.692;9.144;2022-10-31T08:56:48;17.10;97.20
2653;DHT22;1336;48.692;9.144;2022-10-31T08:57:43;17.10;97.20
2653;DHT22;1336;48.692;9.144;2022-10-31T08:58:35;17.10;97.20
2653;DHT22;1336;48.692;9.144;2022-10-31T08:59:26;17.20;97.20
2653;DHT22;1336;48.692;9.144;2022-10-31T09:00:17;17.20;97.20
2653;DHT22;1336;48.692;9.144;2022-10-31T09:01:09;17.20;97.20
2653;DHT22;1336;48.692;9.144;2022-10-31T09:02:00;17.30;97.20
2653;DHT22;1336;48.692;9.144;2022-10-31T09:02:56;17.30;97.20
2653;DHT22;1336;48.692;9.144;2022-10-31T09:03:47;17.30;97.20
2653;DHT22;1336;48.692;9.144;2022-10-31T09:04:38;17.30;97.20
2653;DHT22;1336;48.692;9.144;2022-10-31T09:05:29;17.30;97.20
2653;DHT22;1336;48.692;9.144;2022-10-31T09:06:21;17.40;97.20
2653;DHT22;1336;48.692;9.144;2022-10-31T09:07:13;17.40;97.20
2653;DHT22;1336;48.692;9.144;2022-10-31T09:08:06;17.40;97.20
2653;DHT22;1336;48.692;9.144;2022-10-31T09:08:57;17.50;97.20
2653;DHT22;1336;48.692;9.144;2022-10-31T09:09:49;17.50;97.20
2653;DHT22;1336;48.692;9.144;2022-10-31T09:10:40;17.60;97.20
2653;DHT22;1336;48.692;9.144;2022-10-31T09:11:32;17.60;97.20
2653;DHT22;1336;48.692;9.144;2022-10-31T09:12:23;17.70;97.20
2653;DHT22;1336;48.692;9.144;2022-10-31T09:13:17;17.70;97.20
2653;DHT22;1336;48.692;9.144;2022-10-31T09:14:08;17.70;97.20
2653;DHT22;1336;48.692;9.144;2022-10-31T09:15:00;17.80;97.20
2653;DHT22;1336;48.692;9.144;2022-10-31T09:15:52;17.80;97.20
2653;DHT22;1336;48.692;9.144;2022-10-31T09:16:44;17.90;97.20
2653;DHT22;1336;48.692;9.144;2022-10-31T09:17:34;17.90;97.20
2653;DHT22;1336;48.692;9.144;2022-10-31T09:18:26;17.90;97.20
2653;DHT22;1336;48.692;9.144;2022-10-31T09:19:18;18.00;97.20
2653;DHT22;1336;48.692;9.144;2022-10-31T09:20:10;18.00;97.20
2653;DHT22;1336;48.692;9.144;2022-10-31T09:21:02;18.00;97.20
2653;DHT22;1336;48.692;9.144;2022-10-31T09:21:54;18.10;97.20
2653;DHT22;1336;48.692;9.144;2022-10-31T09:22:46;18.10;97.20
2653;DHT22;1336;48.692;9.144;2022-10-31T09:23:38;18.20;97.20
2653;DHT22;1336;48.692;9.144;2022-10-31T09:24:29;18.20;97.20
2653;DHT22;1336;48.692;9.144;2022-10-31T09:25:20;18.30;97.20
2653;DHT22;1336;48.692;9.144;2022-10-31T09:26:12;18.30;97.20
2653;DHT22;1336;48.692;9.144;2022-10-31T09:27:03;18.30;97.20
2653;DHT22;1336;48.692;9.144;2022-10-31T09:27:56;18.30;97.20
2653;DHT22;1336;48.692;9.144;2022-10-31T09:28:47;18.40;97.20
2653;DHT22;1336;48.692;9.144;2022-10-31T09:29:39;18.40;97.20
2653;DHT22;1336;48.692;9.144;2022-10-31T09:30:32;18.40;97.20
2653;DHT22;1336;48.692;9.144;2022-10-31T09:31:24;18.40;97.20
2653;DHT22;1336;48.692;9.144;2022-10-31T09:32:15;18.40;97.20
2653;DHT22;1336;48.692;9.144;2022-10-31T09:33:09;18.40;97.20
2653;DHT22;1336;48.692;9.144;2022-10-31T09:34:01;18.40;97.20
2653;DHT22;1336;48.692;9.144;2022-10-31T09:34:52;18.40;97.20
2653;DHT22;1336;48.692;9.144;2022-10-31T09:35:44;18.40;97.20
2653;DHT22;1336;48.692;9.144;2022-10-31T09:36:34;18.40;97.20
2653;DHT22;1336;48.692;9.144;2022-10-31T09:37:26;18.40;97.20
2653;DHT22;1336;48.692;9.144;2022-10-31T09:38:20;18.40;97.20
2653;DHT22;1336;48.692;9.144;2022-10-31T09:39:13;18.40;97.20
2653;DHT22;1336;48.692;9.144;2022-10-31T09:40:05;18.40;97.20
2653;DHT22;1336;48.692;9.144;2022-10-31T09:41:06;18.40;97.20
2653;DHT22;1336;48.692;9.144;2022-10-31T09:42:07;18.50;97.20
2653;DHT22;1336;48.692;9.144;2022-10-31T09:43:08;18.50;97.20
2653;DHT22;1336;48.692;9.144;2022-10-31T09:44:05;18.50;97.20
2653;DHT22;1336;48.692;9.144;2022-10-31T09:45:06;18.60;97.20
2653;DHT22;1336;48.692;9.144;2022-10-31T09:46:03;18.60;97.20
2653;DHT22;1336;48.692;9.144;2022-10-31T09:47:01;18.60;97.20
2653;DHT22;1336;48.692;9.144;2022-10-31T09:48:02;18.60;97.20
2653;DHT22;1336;48.692;9.144;2022-10-31T09:49:16;18.60;97.20
2653;DHT22;1336;48.692;9.144;2022-10-31T09:50:17;18.60;97.20
2653;DHT22;1336;48.692;9.144;2022-10-31T09:51:12;18.70;97.20
2653;DHT22;1336;48.692;9.144;2022-10-31T09:52:11;18.70;97.20
2653;DHT22;1336;48.692;9.144;2022-10-31T09:53:10;18.70;97.20
2653;DHT22;1336;48.692;9.144;2022-10-31T09:54:08;18.70;97.20
2653;DHT22;1336;48.692;9.144;2022-10-31T09:55:05;18.80;97.20
2653;DHT22;1336;48.692;9.144;2022-10-31T09:56:00;18.80;97.20
2653;DHT22;1336;48.692;9.144;2022-10-31T09:56:52;18.90;97.20
2653;DHT22;1336;48.692;9.144;2022-10-31T09:57:45;18.90;97.20
2653;DHT22;1336;48.692;9.144;2022-10-31T09:58:41;19.00;97.20
2653;DHT22;1336;48.692;9.144;2022-10-31T09:59:35;19.00;97.20
2653;DHT22;1336;48.692;9.144;2022-10-31T10:00:28;19.10;97.20
2653;DHT22;1336;48.692;9.144;2022-10-31T10:01:30;19.10;97.20
2653;DHT22;1336;48.692;9.144;2022-10-31T10:02:25;19.10;97.20
2653;DHT22;1336;48.692;9.144;2022-10-31T10:03:27;19.20;97.20
2653;DHT22;1336;48.692;9.144;2022-10-31T10:04:32;19.20;97.20
2653;DHT22;1336;48.692;9.144;2022-10-31T10:05:29;19.30;97.20
2653;DHT22;1336;48.692;9.144;2022-10-31T10:06:26;19.30;97.20
2653;DHT22;1336;48.692;9.144;2022-10-31T10:07:24;19.40;97.20
2653;DHT22;1336;48.692;9.144;2022-10-31T10:08:19;19.50;97.20
2653;DHT22;1336;48.692;9.144;2022-10-31T10:09:12;19.50;97.20
2653;DHT22;1336;48.692;9.144;2022-10-31T10:10:12;19.50;97.20
2653;DHT22;1336;48.692;9.144;2022-10-31T10:11:17;19.60;97.20
2653;DHT22;1336;48.692;9.144;2022-10-31T10:12:16;19.60;97.20
2653;DHT22;1336;48.692;9.144;2022-10-31T10:13:41;19.70;97.20
2653;DHT22;1336;48.692;9.144;2022-10-31T10:14:48;19.70;97.20
2653;DHT22;1336;48.692;9.144;2022-10-31T10:16:00;19.80;97.20
2653;DHT22;1336;48.692;9.144;2022-10-31T10:17:07;19.80;97.20
2653;DHT22;1336;48.692;9.144;2022-10-31T10:18:08;19.90;97.20
2653;DHT22;1336;48.692;9.144;2022-10-31T10:19:12;19.90;97.20
2653;DHT22;1336;48.692;9.144;2022-10-31T10:20:21;19.90;97.20
2653;DHT22;1336;48.692;9.144;2022-10-31T10:21:25;19.90;97.20
2653;DHT22;1336;48.692;9.144;2022-10-31T10:22:28;19.90;97.20
2653;DHT22;1336;48.692;9.144;2022-10-31T10:23:34;19.90;97.20
2653;DHT22;1336;48.692;9.144;2022-10-31T10:24:38;19.90;97.20
2653;DHT22;1336;48.692;9.144;2022-10-31T10:25:37;19.80;97.20
2653;DHT22;1336;48.692;9.144;2022-10-31T10:26:35;19.80;97.20
2653;DHT22;1336;48.692;9.144;2022-10-31T10:27:49;19.80;97.20
2653;DHT22;1336;48.692;9.144;2022-10-31T10:28:43;19.70;97.20
2653;DHT22;1336;48.692;9.144;2022-10-31T10:29:40;19.70;97.20
2653;DHT22;1336;48.692;9.144;2022-10-31T10:30:38;19.70;97.20
2653;DHT22;1336;48.692;9.144;2022-10-31T10:31:35;19.60;97.20
2653;DHT22;1336;48.692;9.144;2022-10-31T10:32:28;19.60;97.20
2653;DHT22;1336;48.692;9.144;2022-10-31T10:33:22;19.60;97.20
2653;DHT22;1336;48.692;9.144;2022-10-31T10:34:20;19.50;97.20
2653;DHT22;1336;48.692;9.144;2022-10-31T10:35:20;19.50;97.20
2653;DHT22;1336;48.692;9.144;2022-10-31T10:36:16;19.50;97.20
2653;DHT22;1336;48.692;9.144;2022-10-31T10:37:16;19.60;97.20
2653;DHT22;1336;48.692;9.144;2022-10-31T10:38:15;19.60;97.20
2653;DHT22;1336;48.692;9.144;2022-10-31T10:39:14;19.60;97.20
2653;DHT22;1336;48.692;9.144;2022-10-31T10:40:13;19.60;97.20
2653;DHT22;1336;48.692;9.144;2022-10-31T10:41:12;19.60;97.20
2653;DHT22;1336;48.692;9.144;2022-10-31T10:42:09;19.60;97.20
2653;DHT22;1336;48.692;9.144;2022-10-31T10:43:23;19.60;97.20
2653;DHT22;1336;48.692;9.144;2022-10-31T10:44:20;19.50;97.20
2653;DHT22;1336;48.692;9.144;2022-10-31T10:45:15;19.50;97.20
2653;DHT22;1336;48.692;9.144;2022-10-31T10:46:32;19.50;97.20
2653;DHT22;1336;48.692;9.144;2022-10-31T10:47:46;19.40;97.20
2653;DHT22;1336;48.692;9.144;2022-10-31T10:48:43;19.40;97.20
2653;DHT22;1336;48.692;9.144;2022-10-31T10:49:40;19.40;97.20
2653;DHT22;1336;48.692;9.144;2022-10-31T10:50:49;19.40;97.20
2653;DHT22;1336;48.692;9.144;2022-10-31T10:51:44;19.30;97.20
2653;DHT22;1336;48.692;9.144;2022-10-31T10:52:42;19.30;97.20
2653;DHT22;1336;48.692;9.144;2022-10-31T10:53:44;19.30;97.20
2653;DHT22;1336;48.692;9.144;2022-10-31T10:54:59;19.30;97.20
2653;DHT22;1336;48.692;9.144;2022-10-31T10:55:59;19.30;97.20
2653;DHT22;1336;48.692;9.144;2022-10-31T10:57:00;19.30;97.20
2653;DHT22;1336;48.692;9.144;2022-10-31T10:57:56;19.20;97.20
2653;DHT22;1336;48.692;9.144;2022-10-31T10:58:56;19.20;97.20
2653;DHT22;1336;48.692;9.144;2022-10-31T10:59:48;19.20;97.20
2653;DHT22;1336;48.692;9.144;2022-10-31T11:00:40;19.20;97.20
2653;DHT22;1336;48.692;9.144;2022-10-31T11:01:32;19.20;97.20
2653;DHT22;1336;48.692;9.144;2022-10-31T11:02:25;19.20;97.20
2653;DHT22;1336;48.692;9.144;2022-10-31T11:03:18;19.20;97.20
2653;DHT22;1336;48.692;9.144;2022-10-31T11:04:29;19.30;97.20
2653;DHT22;1336;48.692;9.144;2022-10-31T11:05:25;19.30;97.20
2653;DHT22;1336;48.692;9.144;2022-10-31T11:06:18;19.30;97.20
2653;DHT22;1336;48.692;9.144;2022-10-31T11:07:12;19.40;97.20
2653;DHT22;1336;48.692;9.144;2022-10-31T11:08:03;19.40;97.20
2653;DHT22;1336;48.692;9.144;2022-10-31T11:08:55;19.40;97.20
2653;DHT22;1336;48.692;9.144;2022-10-31T11:09:46;19.50;97.20
2653;DHT22;1336;48.692;9.144;2022-10-31T11:10:38;19.60;97.20
2653;DHT22;1336;48.692;9.144;2022-10-31T11:11:30;19.70;97.20
2653;DHT22;1336;48.692;9.144;2022-10-31T11:12:32;19.80;97.20
2653;DHT22;1336;48.692;9.144;2022-10-31T11:13:24;20.00;97.20
2653;DHT22;1336;48.692;9.144;2022-10-31T11:14:16;20.10;97.20
2653;DHT22;1336;48.692;9.144;2022-10-31T11:15:18;20.30;97.20
2653;DHT22;1336;48.692;9.144;2022-10-31T11:16:12;20.40;97.20
2653;DHT22;1336;48.692;9.144;2022-10-31T11:17:09;20.60;97.20
2653;DHT22;1336;48.692;9.144;2022-10-31T11:18:02;20.80;97.20
2653;DHT22;1336;48.692;9.144;2022-10-31T11:18:53;20.90;97.20
2653;DHT22;1336;48.692;9.144;2022-10-31T11:20:01;21.00;97.20
2653;DHT22;1336;48.692;9.144;2022-10-31T11:20:53;21.20;97.20
2653;DHT22;1336;48.692;9.144;2022-10-31T11:21:46;21.30;97.20
2653;DHT22;1336;48.692;9.144;2022-10-31T11:22:36;21.40;97.20
2653;DHT22;1336;48.692;9.144;2022-10-31T11:23:28;21.50;97.20
2653;DHT22;1336;48.692;9.144;2022-10-31T11:24:21;21.60;97.20
2653;DHT22;1336;48.692;9.144;2022-10-31T11:25:23;21.80;97.20
2653;DHT22;1336;48.692;9.144;2022-10-31T11:26:19;21.90;97.20
2653;DHT22;1336;48.692;9.144;2022-10-31T11:27:16;22.00;97.20
2653;DHT22;1336;48.692;9.144;2022-10-31T11:28:09;22.10;97.20
2653;DHT22;1336;48.692;9.144;2022-10-31T11:29:01;22.20;97.20
2653;DHT22;1336;48.692;9.144;2022-10-31T11:30:04;22.30;97.20
2653;DHT22;1336;48.692;9.144;2022-10-31T11:30:58;22.40;97.20
2653;DHT22;1336;48.692;9.144;2022-10-31T11:31:51;22.50;97.20
2653;DHT22;1336;48.692;9.144;2022-10-31T11:32:47;22.50;97.20
2653;DHT22;1336;48.692;9.144;2022-10-31T11:33:44;22.60;97.20
2653;DHT22;1336;48.692;9.144;2022-10-31T11:34:42;22.70;97.20
2653;DHT22;1336;48.692;9.144;2022-10-31T11:35:39;22.80;97.20
2653;DHT22;1336;48.692;9.144;2022-10-31T11:36:33;22.90;97.20
2653;DHT22;1336;48.692;9.144;2022-10-31T11:37:27;22.90;97.20
2653;DHT22;1336;48.692;9.144;2022-10-31T11:38:21;23.00;97.20
2653;DHT22;1336;48.692;9.144;2022-10-31T11:39:17;23.00;97.20
2653;DHT22;1336;48.692;9.144;2022-10-31T11:40:18;23.10;97.20
2653;DHT22;1336;48.692;9.144;2022-10-31T11:41:12;23.20;97.20
2653;DHT22;1336;48.692;9.144;2022-10-31T11:42:04;23.20;97.20
2653;DHT22;1336;48.692;9.144;2022-10-31T11:42:57;23.20;97.20
2653;DHT22;1336;48.692;9.144;2022-10-31T11:43:51;23.30;97.20
2653;DHT22;1336;48.692;9.144;2022-10-31T11:44:43;23.30;97.20
2653;DHT22;1336;48.692;9.144;2022-10-31T11:45:36;23.30;97.20
2653;DHT22;1336;48.692;9.144;2022-10-31T11:46:33;23.30;97.20
2653;DHT22;1336;48.692;9.144;2022-10-31T11:47:27;23.30;97.20
2653;DHT22;1336;48.692;9.144;2022-10-31T11:48:21;23.30;97.20
2653;DHT22;1336;48.692;9.144;2022-10-31T11:49:15;23.20;97.20
2653;DHT22;1336;48.692;9.144;2022-10-31T11:50:11;23.20;97.20
2653;DHT22;1336;48.692;9.144;2022-10-31T11:51:06;23.10;97.20
2653;DHT22;1336;48.692;9.144;2022-10-31T11:52:05;23.00;97.20
2653;DHT22;1336;48.692;9.144;2022-10-31T11:52:57;23.00;97.20